Carnival Vista — 3EMB9 — position and weather

sailwx.info

Track history (hours):
 
Tides and Currents Weather Stations Pressure Air Temp Water Temp Dewpoint Dewpoint Depression Visibility Wind Speed Wind Dir Waves Ship Positions

Carnival Vista

Last reported at 2017-Jun-18 00:37 UTC. Time now 2017-Jun-23 18:49 UTC.
Position N 26°15' W 079°18'.

Length 324 m; draft 8.5 m.

Type: Passenger vessel. MMSI: 356883000.

Date/timePositionNaut miles runAvg speedWind from/ knotsBaromVisibWave heightAir tempDewpointWater temp
2017-Jun-18 00:37N 26°15' W 079°18'217.9
2017-Jun-18 00:30N 26°14' W 079°20'918.2
2017-Jun-18 00:01N 26°08' W 079°27'918.5
2017-Jun-17 23:31N 26°01' W 079°35'816.9
2017-Jun-17 23:01N 25°56' W 079°42'714.5
2017-Jun-17 22:31N 25°53' W 079°49'714.4
2017-Jun-17 22:01N 25°50' W 079°57'714.1
2017-Jun-17 21:30N 25°46' W 080°04'510.0
2017-Jun-17 21:01N 25°46' W 080°09'1 1.8
2017-Jun-17 20:29N 25°47' W 080°10'0 0.0
2017-Jun-17 19:59N 25°47' W 080°10'0 0.0
2017-Jun-17 19:29N 25°47' W 080°10'0 0.0
2017-Jun-17 18:59N 25°47' W 080°10'0 0.0
2017-Jun-17 18:29N 25°47' W 080°10'0 0.0
2017-Jun-17 17:59N 25°47' W 080°10'0 0.0
2017-Jun-17 17:29N 25°47' W 080°10'0 0.0
2017-Jun-17 16:59N 25°47' W 080°10'0 0.0
2017-Jun-17 16:29N 25°47' W 080°10'0 0.0
2017-Jun-17 15:59N 25°47' W 080°10'0 0.0
2017-Jun-17 15:29N 25°47' W 080°10'0 0.0
2017-Jun-17 14:59N 25°47' W 080°10'0 0.0
2017-Jun-17 14:29N 25°47' W 080°10'0 0.0
2017-Jun-17 13:29N 25°47' W 080°10'0 0.0
2017-Jun-17 12:59N 25°47' W 080°10'0 0.0
2017-Jun-17 12:29N 25°47' W 080°10'0 0.0
2017-Jun-17 11:59N 25°47' W 080°10'0 0.0
2017-Jun-17 11:29N 25°47' W 080°10'0 0.0
2017-Jun-17 10:59N 25°47' W 080°10'0 0.0
2017-Jun-17 10:29N 25°47' W 080°10'0 0.0
2017-Jun-17 09:59N 25°47' W 080°10'0 0.0
2017-Jun-17 09:30N 25°47' W 080°10'0 0.0
2017-Jun-17 09:00N 25°47' W 080°10'1 1.7
2017-Jun-17 08:30N 25°47' W 080°11'2 3.5
2017-Jun-17 08:00N 25°46' W 080°09'510.0
2017-Jun-17 07:30N 25°46' W 080°04'4 7.8
2017-Jun-17 07:00N 25°44' W 080°00'815.0
2017-Jun-17 06:31N 25°38' W 079°55'815.1
2017-Jun-17 06:01N 25°32' W 079°50'815.2
2017-Jun-17 05:30N 25°25' W 079°45'815.4
2017-Jun-17 05:00N 25°19' W 079°40'1314.8
2017-Jun-17 04:07N 25°06' W 079°40'516.5
2017-Jun-17 03:48N 25°01' W 079°41'48516.8
2017-Jun-15 22:57N 20°32' W 086°59'4 7.8
2017-Jun-15 22:30N 20°29' W 086°59'0 0.4
2017-Jun-15 22:00N 20°29' W 086°59'0 0.0
2017-Jun-15 21:30N 20°29' W 086°59'0 0.0
2017-Jun-15 21:00N 20°29' W 086°59'0 0.0
2017-Jun-15 20:24N 20°29' W 086°59'0 0.0
2017-Jun-15 20:00N 20°29' W 086°59'0 0.0
2017-Jun-15 19:27N 20°29' W 086°59'0 0.0
2017-Jun-15 19:00N 20°29' W 086°59'0 0.0
2017-Jun-15 18:30N 20°29' W 086°59'0 0.0
2017-Jun-15 17:54N 20°29' W 086°59'0 0.0
2017-Jun-15 17:24N 20°29' W 086°59'0 0.0
2017-Jun-15 17:00N 20°29' W 086°59'0 0.0
2017-Jun-15 16:27N 20°29' W 086°59'0 0.0
2017-Jun-15 16:00N 20°29' W 086°59'0 0.0
2017-Jun-15 15:30N 20°29' W 086°59'0 0.0
2017-Jun-15 15:00N 20°29' W 086°59'0 0.0
2017-Jun-15 14:30N 20°29' W 086°59'0 0.0
2017-Jun-15 13:30N 20°29' W 086°59'2 3.2
2017-Jun-15 13:00N 20°30' W 086°59'4 7.0
2017-Jun-15 12:30N 20°33' W 086°58'714.1
2017-Jun-15 12:01N 20°38' W 086°53'  
2017-Jun-11 21:59N 25°39' W 079°52'715.5
2017-Jun-11 21:30N 25°42' W 079°60'612.2
2017-Jun-11 21:00N 25°46' W 080°05'4 8.8
2017-Jun-11 20:30N 25°47' W 080°10'0 0.5
2017-Jun-11 20:00N 25°47' W 080°10'0 0.0
2017-Jun-11 19:30N 25°47' W 080°10'0 0.0
2017-Jun-11 19:00N 25°47' W 080°10'0 0.0
2017-Jun-11 18:30N 25°47' W 080°10'0 0.0
2017-Jun-11 18:00N 25°47' W 080°10'0 0.0
2017-Jun-11 17:30N 25°47' W 080°10'0 0.0
2017-Jun-11 17:00N 25°47' W 080°10'0 0.0
2017-Jun-11 16:30N 25°47' W 080°10'0 0.0
2017-Jun-11 16:00N 25°47' W 080°10'0 0.0
2017-Jun-11 15:30N 25°47' W 080°10'0 0.0
2017-Jun-11 15:00N 25°47' W 080°10'0 0.0
2017-Jun-11 14:31N 25°47' W 080°10'0 0.0
2017-Jun-11 13:30N 25°47' W 080°10'0 0.0
2017-Jun-11 12:58N 25°47' W 080°10'0 0.0
2017-Jun-11 12:28N 25°47' W 080°10'0 0.0
2017-Jun-11 11:58N 25°47' W 080°10'0 0.0
2017-Jun-11 11:28N 25°47' W 080°10'0 0.0
2017-Jun-11 10:58N 25°47' W 080°10'0 0.0
2017-Jun-11 10:28N 25°47' W 080°10'0 0.0
2017-Jun-11 10:01N 25°47' W 080°10'0 0.0
2017-Jun-11 09:31N 25°47' W 080°10'1 1.9
2017-Jun-11 09:01N 25°47' W 080°11'3 5.4
2017-Jun-11 08:31N 25°46' W 080°08'510.4
2017-Jun-11 08:01N 25°46' W 080°03'3 6.9
2017-Jun-11 07:31N 25°44' W 079°60'714.8
2017-Jun-11 07:01N 25°38' W 079°55'1019.5
2017-Jun-11 06:31N 25°30' W 079°48'1019.9
2017-Jun-11 06:00N 25°22' W 079°42'1019.8
2017-Jun-11 05:30N 25°13' W 079°38'  
Track history (hours):
 
Tides and Currents Weather Stations Pressure Air Temp Water Temp Dewpoint Dewpoint Depression Visibility Wind Speed Wind Dir Waves Ship Positions

Carnival Vista

Last reported at 2017-Jun-18 00:37 UTC. Time now 2017-Jun-23 18:49 UTC.
Position N 26°15' W 079°18'.

Length 324 m; draft 8.5 m.

Type: Passenger vessel. MMSI: 356883000.

Date/timePositionNaut miles runAvg speedWind from/ knotsBaromVisibWave heightAir tempDewpointWater temp
2017-Jun-18 00:37N 26°15' W 079°18'217.9
2017-Jun-18 00:30N 26°14' W 079°20'918.2
2017-Jun-18 00:01N 26°08' W 079°27'918.5
2017-Jun-17 23:31N 26°01' W 079°35'816.9
2017-Jun-17 23:01N 25°56' W 079°42'714.5
2017-Jun-17 22:31N 25°53' W 079°49'714.4
2017-Jun-17 22:01N 25°50' W 079°57'714.1
2017-Jun-17 21:30N 25°46' W 080°04'510.0
2017-Jun-17 21:01N 25°46' W 080°09'1 1.8
2017-Jun-17 20:29N 25°47' W 080°10'0 0.0
2017-Jun-17 19:59N 25°47' W 080°10'0 0.0
2017-Jun-17 19:29N 25°47' W 080°10'0 0.0
2017-Jun-17 18:59N 25°47' W 080°10'0 0.0
2017-Jun-17 18:29N 25°47' W 080°10'0 0.0
2017-Jun-17 17:59N 25°47' W 080°10'0 0.0
2017-Jun-17 17:29N 25°47' W 080°10'0 0.0
2017-Jun-17 16:59N 25°47' W 080°10'0 0.0
2017-Jun-17 16:29N 25°47' W 080°10'0 0.0
2017-Jun-17 15:59N 25°47' W 080°10'0 0.0
2017-Jun-17 15:29N 25°47' W 080°10'0 0.0
2017-Jun-17 14:59N 25°47' W 080°10'0 0.0
2017-Jun-17 14:29N 25°47' W 080°10'0 0.0
2017-Jun-17 13:29N 25°47' W 080°10'0 0.0
2017-Jun-17 12:59N 25°47' W 080°10'0 0.0
2017-Jun-17 12:29N 25°47' W 080°10'0 0.0
2017-Jun-17 11:59N 25°47' W 080°10'0 0.0
2017-Jun-17 11:29N 25°47' W 080°10'0 0.0
2017-Jun-17 10:59N 25°47' W 080°10'0 0.0
2017-Jun-17 10:29N 25°47' W 080°10'0 0.0
2017-Jun-17 09:59N 25°47' W 080°10'0 0.0
2017-Jun-17 09:30N 25°47' W 080°10'0 0.0
2017-Jun-17 09:00N 25°47' W 080°10'1 1.7
2017-Jun-17 08:30N 25°47' W 080°11'2 3.5
2017-Jun-17 08:00N 25°46' W 080°09'510.0
2017-Jun-17 07:30N 25°46' W 080°04'4 7.8
2017-Jun-17 07:00N 25°44' W 080°00'815.0
2017-Jun-17 06:31N 25°38' W 079°55'815.1
2017-Jun-17 06:01N 25°32' W 079°50'815.2
2017-Jun-17 05:30N 25°25' W 079°45'815.4
2017-Jun-17 05:00N 25°19' W 079°40'1314.8
2017-Jun-17 04:07N 25°06' W 079°40'516.5
2017-Jun-17 03:48N 25°01' W 079°41'48516.8
2017-Jun-15 22:57N 20°32' W 086°59'4 7.8
2017-Jun-15 22:30N 20°29' W 086°59'0 0.4
2017-Jun-15 22:00N 20°29' W 086°59'0 0.0
2017-Jun-15 21:30N 20°29' W 086°59'0 0.0
2017-Jun-15 21:00N 20°29' W 086°59'0 0.0
2017-Jun-15 20:24N 20°29' W 086°59'0 0.0
2017-Jun-15 20:00N 20°29' W 086°59'0 0.0
2017-Jun-15 19:27N 20°29' W 086°59'0 0.0
2017-Jun-15 19:00N 20°29' W 086°59'0 0.0
2017-Jun-15 18:30N 20°29' W 086°59'0 0.0
2017-Jun-15 17:54N 20°29' W 086°59'0 0.0
2017-Jun-15 17:24N 20°29' W 086°59'0 0.0
2017-Jun-15 17:00N 20°29' W 086°59'0 0.0
2017-Jun-15 16:27N 20°29' W 086°59'0 0.0
2017-Jun-15 16:00N 20°29' W 086°59'0 0.0
2017-Jun-15 15:30N 20°29' W 086°59'0 0.0
2017-Jun-15 15:00N 20°29' W 086°59'0 0.0
2017-Jun-15 14:30N 20°29' W 086°59'0 0.0
2017-Jun-15 13:30N 20°29' W 086°59'2 3.2
2017-Jun-15 13:00N 20°30' W 086°59'4 7.0
2017-Jun-15 12:30N 20°33' W 086°58'714.1
2017-Jun-15 12:01N 20°38' W 086°53'  
2017-Jun-11 21:59N 25°39' W 079°52'715.5
2017-Jun-11 21:30N 25°42' W 079°60'612.2
2017-Jun-11 21:00N 25°46' W 080°05'4 8.8
2017-Jun-11 20:30N 25°47' W 080°10'0 0.5
2017-Jun-11 20:00N 25°47' W 080°10'0 0.0
2017-Jun-11 19:30N 25°47' W 080°10'0 0.0
2017-Jun-11 19:00N 25°47' W 080°10'0 0.0
2017-Jun-11 18:30N 25°47' W 080°10'0 0.0
2017-Jun-11 18:00N 25°47' W 080°10'0 0.0
2017-Jun-11 17:30N 25°47' W 080°10'0 0.0
2017-Jun-11 17:00N 25°47' W 080°10'0 0.0
2017-Jun-11 16:30N 25°47' W 080°10'0 0.0
2017-Jun-11 16:00N 25°47' W 080°10'0 0.0
2017-Jun-11 15:30N 25°47' W 080°10'0 0.0
2017-Jun-11 15:00N 25°47' W 080°10'0 0.0
2017-Jun-11 14:31N 25°47' W 080°10'0 0.0
2017-Jun-11 13:30N 25°47' W 080°10'0 0.0
2017-Jun-11 12:58N 25°47' W 080°10'0 0.0
2017-Jun-11 12:28N 25°47' W 080°10'0 0.0
2017-Jun-11 11:58N 25°47' W 080°10'0 0.0
2017-Jun-11 11:28N 25°47' W 080°10'0 0.0
2017-Jun-11 10:58N 25°47' W 080°10'0 0.0
2017-Jun-11 10:28N 25°47' W 080°10'0 0.0
2017-Jun-11 10:01N 25°47' W 080°10'0 0.0
2017-Jun-11 09:31N 25°47' W 080°10'1 1.9
2017-Jun-11 09:01N 25°47' W 080°11'3 5.4
2017-Jun-11 08:31N 25°46' W 080°08'510.4
2017-Jun-11 08:01N 25°46' W 080°03'3 6.9
2017-Jun-11 07:31N 25°44' W 079°60'714.8
2017-Jun-11 07:01N 25°38' W 079°55'1019.5
2017-Jun-11 06:31N 25°30' W 079°48'1019.9
2017-Jun-11 06:00N 25°22' W 079°42'1019.8
2017-Jun-11 05:30N 25°13' W 079°38'  

Dump ship's entire track history